Terminal Aerodrome Forecast
Issued by NWS Twin Cities, MN

Home | Current Version | Previous Version | Graphics & Text | Print | Product List | Glossary On
Versions: 1 2 3 4 5 6 7 8 9 10 11 12 13 14 15 16 17 18 19 20 21 22 23 24 25 26 27 28 29
000
FTUS43 KMPX 260245 AAA
TAFMSP
TAF AMD
KMSP 260245Z 2603/2706 25004KT P6SM FEW020 BKN060
     FM260600 VRB03KT 6SM BR SCT018
     FM260900 VRB03KT 4SM BR SCT004 BKN018
      TEMPO 2610/2611 2SM BR
     FM261400 34003KT 6SM BR FEW008 BKN018
     FM261700 35005KT P6SM SCT018 BKN050=

USA.gov is the U.S. government's official web portal to all federal, state and local government web resources and services.